createdAt,value
2022-12-18T00:00:14.219Z,0.98
2022-12-18T00:03:07.683Z,0.88
2022-12-18T00:05:48.952Z,0.82
2022-12-18T00:08:22.678Z,0.82
2022-12-18T00:10:55.662Z,0.82
2022-12-18T00:13:33.741Z,0.89
2022-12-18T00:16:09.182Z,0.97
2022-12-18T00:18:42.232Z,1.01
2022-12-18T00:21:16.384Z,1.03
2022-12-18T00:23:53.713Z,1.08
2022-12-18T00:26:29.393Z,1.17
2022-12-18T00:29:08.133Z,1.26
2022-12-18T00:31:43.805Z,1.33
2022-12-18T00:34:18.056Z,1.37
2022-12-18T00:36:51.872Z,1.43
2022-12-18T00:39:24.169Z,1.45
2022-12-18T00:42:18.390Z,1.49
2022-12-18T00:44:51.279Z,1.55
2022-12-18T00:47:25.330Z,1.61
2022-12-18T00:49:59.752Z,1.67
2022-12-18T00:52:36.803Z,1.67
2022-12-18T00:55:11.356Z,1.68
2022-12-18T00:57:46.285Z,1.72
2022-12-18T01:00:20.078Z,1.71
2022-12-18T01:02:53.305Z,1.73
2022-12-18T01:05:26.343Z,1.75
2022-12-18T01:07:59.763Z,1.80
2022-12-18T01:10:33.078Z,1.83
2022-12-18T01:13:05.447Z,1.81
2022-12-18T01:15:44.672Z,1.79
2022-12-18T01:18:18.664Z,1.78
2022-12-18T01:20:51.378Z,1.80
2022-12-18T01:23:28.032Z,1.80
2022-12-18T01:26:00.429Z,1.77
2022-12-18T01:28:32.537Z,1.76
2022-12-18T01:31:18.209Z,1.75
2022-12-18T01:33:50.510Z,1.69
2022-12-18T01:36:25.415Z,1.69
2022-12-18T01:39:01.083Z,1.66
2022-12-18T01:41:50.551Z,1.62
2022-12-18T01:45:00.946Z,1.60
2022-12-18T01:47:37.496Z,1.61
2022-12-18T01:50:14.355Z,1.65
2022-12-18T01:52:49.367Z,1.67
2022-12-18T01:55:24.838Z,1.66
2022-12-18T01:58:00.945Z,1.66
2022-12-18T02:00:35.379Z,1.70
2022-12-18T02:03:07.845Z,1.72
2022-12-18T02:05:45.944Z,1.69
2022-12-18T02:08:25.886Z,1.69
2022-12-18T02:11:05.968Z,1.69
2022-12-18T02:13:43.344Z,1.70
2022-12-18T02:16:26.407Z,1.69
2022-12-18T02:19:07.865Z,1.71
2022-12-18T02:21:51.697Z,1.69
2022-12-18T02:24:37.291Z,1.68
2022-12-18T02:27:12.185Z,1.66
2022-12-18T02:29:56.001Z,1.64
2022-12-18T02:32:35.907Z,1.64
2022-12-18T02:35:12.685Z,1.66
2022-12-18T02:37:47.264Z,1.65
2022-12-18T02:40:21.158Z,1.62
2022-12-18T02:42:55.162Z,1.61
2022-12-18T02:45:27.716Z,1.65
2022-12-18T02:48:05.409Z,1.68
2022-12-18T02:50:43.713Z,1.61
2022-12-18T02:53:22.897Z,1.58
2022-12-18T02:56:04.328Z,1.52
2022-12-18T02:58:47.098Z,1.50
2022-12-18T03:01:24.314Z,1.50
2022-12-18T03:04:01.423Z,1.53
2022-12-18T03:06:38.813Z,1.51
2022-12-18T03:09:19.019Z,1.55
2022-12-18T03:12:17.501Z,1.62
2022-12-18T03:14:54.056Z,1.65
2022-12-18T03:17:27.788Z,1.62
2022-12-18T03:20:06.035Z,1.64
2022-12-18T03:22:39.133Z,1.68
2022-12-18T03:25:15.615Z,1.71
2022-12-18T03:27:52.171Z,1.74
2022-12-18T03:30:24.833Z,1.69
2022-12-18T03:33:08.265Z,1.63
2022-12-18T03:35:44.784Z,1.65
2022-12-18T03:38:18.088Z,1.65
2022-12-18T03:40:56.351Z,1.70
2022-12-18T03:43:38.418Z,1.68
2022-12-18T03:46:15.426Z,1.65
2022-12-18T03:48:54.948Z,1.63
2022-12-18T03:51:33.305Z,1.63
2022-12-18T03:54:09.321Z,1.60
2022-12-18T03:56:48.935Z,1.62
2022-12-18T03:59:22.898Z,1.61
2022-12-18T04:01:58.117Z,1.58
2022-12-18T04:04:33.877Z,1.60
2022-12-18T04:07:09.628Z,1.61
2022-12-18T04:09:42.775Z,1.64
2022-12-18T04:12:15.965Z,1.63
2022-12-18T04:14:50.752Z,1.55
2022-12-18T04:17:25.342Z,1.45
2022-12-18T04:20:00.078Z,1.43
2022-12-18T04:22:37.910Z,1.43
2022-12-18T04:25:12.484Z,1.44
2022-12-18T04:27:45.576Z,1.41
2022-12-18T04:30:18.330Z,1.36
2022-12-18T04:32:52.329Z,1.36
2022-12-18T04:35:25.360Z,1.38
2022-12-18T04:37:59.313Z,1.42
2022-12-18T04:40:32.473Z,1.38
2022-12-18T04:43:08.491Z,1.38
2022-12-18T04:45:43.404Z,1.38
2022-12-18T04:48:16.837Z,1.33
2022-12-18T04:50:52.183Z,1.28
2022-12-18T04:53:25.809Z,1.26
2022-12-18T04:56:08.686Z,1.25
2022-12-18T04:58:44.765Z,1.21
2022-12-18T05:01:19.051Z,1.20
2022-12-18T05:03:54.242Z,1.24
2022-12-18T05:06:28.307Z,1.28
2022-12-18T05:09:00.937Z,1.29
2022-12-18T05:11:33.628Z,1.30
2022-12-18T05:14:08.530Z,1.39
2022-12-18T05:16:41.179Z,1.42
2022-12-18T05:19:14.311Z,1.47
2022-12-18T05:21:46.912Z,1.48
2022-12-18T05:24:21.435Z,1.45
2022-12-18T05:26:54.618Z,1.46
2022-12-18T05:29:31.068Z,1.42
2022-12-18T05:32:03.299Z,1.42
2022-12-18T05:34:36.524Z,1.44
2022-12-18T05:37:09.768Z,1.46
2022-12-18T05:39:43.151Z,1.47
2022-12-18T05:42:17.229Z,1.47
2022-12-18T05:44:55.231Z,1.48
2022-12-18T05:47:30.300Z,1.49
2022-12-18T05:50:04.214Z,1.53
2022-12-18T05:52:40.168Z,1.54
2022-12-18T05:55:15.273Z,1.55
2022-12-18T05:57:53.640Z,1.56
2022-12-18T06:00:32.144Z,1.55
2022-12-18T06:03:05.327Z,1.56
2022-12-18T06:05:41.620Z,1.52
2022-12-18T06:08:17.356Z,1.48
2022-12-18T06:10:56.002Z,1.45
2022-12-18T06:13:29.856Z,1.42
2022-12-18T06:16:05.200Z,1.42
2022-12-18T06:18:40.734Z,1.40
2022-12-18T06:21:15.639Z,1.35
2022-12-18T06:23:49.921Z,1.36
2022-12-18T06:26:27.649Z,1.35
2022-12-18T06:29:00.262Z,1.39
2022-12-18T06:31:33.189Z,1.41
2022-12-18T06:34:07.752Z,1.45
2022-12-18T06:36:40.961Z,1.46
2022-12-18T06:39:16.284Z,1.41
2022-12-18T06:41:49.483Z,1.42
2022-12-18T06:44:22.379Z,1.43
2022-12-18T06:46:56.112Z,1.40
2022-12-18T06:49:30.844Z,1.38
2022-12-18T06:52:08.393Z,1.39
2022-12-18T06:54:41.306Z,1.39
2022-12-18T06:57:14.169Z,1.40
2022-12-18T06:59:47.801Z,1.38
2022-12-18T07:02:22.999Z,1.40
2022-12-18T07:04:56.736Z,1.41
2022-12-18T07:07:31.238Z,1.39
2022-12-18T07:10:05.715Z,1.41
2022-12-18T07:12:38.834Z,1.38
2022-12-18T07:15:13.131Z,1.45
2022-12-18T07:17:46.172Z,1.55
2022-12-18T07:20:20.906Z,1.59
2022-12-18T07:22:56.362Z,1.62
2022-12-18T07:25:32.488Z,1.68
2022-12-18T07:28:05.271Z,1.71
2022-12-18T07:30:37.745Z,1.80
2022-12-18T07:33:15.518Z,1.79
2022-12-18T07:35:48.464Z,1.80
2022-12-18T07:38:24.181Z,1.81
2022-12-18T07:41:02.653Z,1.81
2022-12-18T07:43:35.511Z,1.86
2022-12-18T07:46:13.187Z,1.94
2022-12-18T07:48:50.016Z,1.97
2022-12-18T07:51:23.764Z,2.00
2022-12-18T07:53:56.606Z,2.08
2022-12-18T07:56:31.736Z,2.10
2022-12-18T07:59:05.690Z,2.12
2022-12-18T08:01:39.310Z,2.18
2022-12-18T08:04:14.738Z,2.22
2022-12-18T08:06:49.148Z,2.22
2022-12-18T08:09:24.730Z,2.21
2022-12-18T08:11:56.829Z,2.18
2022-12-18T08:14:31.334Z,2.19
2022-12-18T08:17:04.335Z,2.24
2022-12-18T08:19:37.169Z,2.24
2022-12-18T08:22:10.256Z,2.27
2022-12-18T08:24:43.339Z,2.28
2022-12-18T08:27:32.491Z,2.25
2022-12-18T08:30:05.262Z,2.23
2022-12-18T08:32:39.812Z,2.14
2022-12-18T08:35:16.457Z,2.05
2022-12-18T08:37:51.651Z,2.00
2022-12-18T08:40:24.452Z,1.92
2022-12-18T08:43:16.704Z,1.87
2022-12-18T08:45:51.642Z,1.93
2022-12-18T08:48:25.202Z,2.01
2022-12-18T08:51:02.834Z,2.07
2022-12-18T08:53:39.628Z,2.06
2022-12-18T08:56:13.062Z,2.06
2022-12-18T08:58:45.735Z,2.12
2022-12-18T09:01:19.212Z,2.22
2022-12-18T09:03:51.990Z,2.31
2022-12-18T09:06:25.633Z,2.30
2022-12-18T09:09:00.855Z,2.32
2022-12-18T09:11:38.002Z,2.44
2022-12-18T09:14:14.497Z,2.53
2022-12-18T09:16:49.573Z,2.63
2022-12-18T09:19:23.294Z,2.71
2022-12-18T09:21:56.563Z,2.74
2022-12-18T09:24:28.739Z,2.79
2022-12-18T09:27:03.318Z,2.88
2022-12-18T09:29:37.095Z,2.99
2022-12-18T09:32:10.366Z,3.03
2022-12-18T09:34:44.915Z,3.04
2022-12-18T09:37:18.364Z,3.05
2022-12-18T09:39:50.430Z,2.98
2022-12-18T09:42:24.484Z,3.01
2022-12-18T09:44:58.514Z,3.12
2022-12-18T09:47:33.585Z,3.18
2022-12-18T09:50:17.548Z,3.13
2022-12-18T09:52:53.403Z,3.05
2022-12-18T09:55:36.590Z,3.11
2022-12-18T09:58:14.865Z,3.21
2022-12-18T10:00:49.272Z,3.32
2022-12-18T10:03:23.817Z,3.40
2022-12-18T10:06:05.161Z,3.52
2022-12-18T10:08:46.001Z,3.60
2022-12-18T10:11:40.075Z,3.66
2022-12-18T10:14:19.664Z,3.77
2022-12-18T10:17:00.634Z,3.87
2022-12-18T10:19:50.155Z,3.98
2022-12-18T10:22:44.564Z,3.99
2022-12-18T10:25:24.781Z,3.95
2022-12-18T10:28:01.244Z,4.00
2022-12-18T10:30:39.748Z,4.06
2022-12-18T10:33:20.956Z,4.08
2022-12-18T10:35:55.874Z,4.08
2022-12-18T10:38:31.120Z,4.09
2022-12-18T10:41:07.262Z,4.08
2022-12-18T10:43:41.889Z,4.15
2022-12-18T10:46:20.069Z,4.20
2022-12-18T10:49:02.505Z,4.32
2022-12-18T10:51:38.968Z,4.42
2022-12-18T10:54:20.293Z,4.52
2022-12-18T10:56:54.222Z,4.63
2022-12-18T10:59:26.217Z,4.75
2022-12-18T11:02:04.595Z,4.89
2022-12-18T11:04:38.773Z,4.96
2022-12-18T11:07:14.595Z,4.89
2022-12-18T11:09:47.920Z,4.88
2022-12-18T11:12:21.704Z,4.88
2022-12-18T11:14:58.785Z,4.94
2022-12-18T11:17:34.524Z,4.88
2022-12-18T11:20:09.794Z,4.75
2022-12-18T11:22:44.269Z,4.65
2022-12-18T11:25:33.170Z,4.43
2022-12-18T11:28:27.700Z,4.22
2022-12-18T11:31:32.505Z,4.13
2022-12-18T11:34:29.215Z,4.15
2022-12-18T11:37:07.059Z,4.19
2022-12-18T11:39:45.195Z,4.21
2022-12-18T11:42:22.947Z,4.07
2022-12-18T11:45:02.091Z,4.04
2022-12-18T11:47:44.250Z,4.07
2022-12-18T11:50:18.608Z,4.04
2022-12-18T11:52:56.514Z,4.18
2022-12-18T11:55:44.492Z,4.19
2022-12-18T11:58:40.049Z,4.03
2022-12-18T12:01:29.912Z,4.00
2022-12-18T12:04:14.873Z,3.97
2022-12-18T12:07:02.934Z,3.93
2022-12-18T12:09:42.773Z,3.84
2022-12-18T12:12:30.559Z,3.91
2022-12-18T12:15:16.038Z,4.13
2022-12-18T12:17:52.611Z,4.31
2022-12-18T12:20:36.022Z,4.38
2022-12-18T12:23:15.477Z,4.53
2022-12-18T12:25:51.694Z,4.54
2022-12-18T12:28:38.286Z,4.73
2022-12-18T12:31:17.716Z,4.99
2022-12-18T12:33:59.568Z,5.15
2022-12-18T12:36:37.256Z,5.31
2022-12-18T12:39:15.484Z,5.46
2022-12-18T12:42:09.828Z,5.54
2022-12-18T12:44:50.125Z,5.59
2022-12-18T12:47:29.236Z,5.67
2022-12-18T12:50:06.195Z,5.72
2022-12-18T12:52:49.993Z,5.68
2022-12-18T12:55:25.592Z,5.65
2022-12-18T12:58:06.507Z,5.62
2022-12-18T13:00:45.960Z,5.67
2022-12-18T13:03:35.208Z,5.63
2022-12-18T13:06:19.428Z,5.54
2022-12-18T13:09:01.250Z,5.37
2022-12-18T13:12:00.397Z,5.14
2022-12-18T13:14:39.685Z,5.01
2022-12-18T13:17:32.074Z,4.74
2022-12-18T13:20:15.899Z,4.46
2022-12-18T13:22:51.296Z,4.36
2022-12-18T13:25:48.533Z,4.16
2022-12-18T13:28:25.612Z,4.01
2022-12-18T13:31:00.052Z,3.86
2022-12-18T13:34:25.096Z,3.62
2022-12-18T13:36:49.421Z,3.41
2022-12-18T13:39:35.869Z,3.31
2022-12-18T13:42:59.240Z,3.20
2022-12-18T13:46:04.265Z,2.99
2022-12-18T13:48:42.621Z,2.80
2022-12-18T13:51:20.757Z,2.75
2022-12-18T13:53:57.464Z,2.66
2022-12-18T13:56:31.909Z,2.60
2022-12-18T13:59:17.364Z,2.45
2022-12-18T14:01:55.134Z,2.38
2022-12-18T14:04:30.529Z,2.30
2022-12-18T14:07:07.628Z,2.23
2022-12-18T14:09:42.740Z,2.13
2022-12-18T14:12:38.421Z,2.06
2022-12-18T14:15:22.857Z,2.00
2022-12-18T14:17:58.445Z,1.88
2022-12-18T14:20:34.190Z,1.72
2022-12-18T14:23:08.104Z,1.47
2022-12-18T14:25:42.150Z,1.39
2022-12-18T14:28:17.979Z,1.41
2022-12-18T14:30:52.449Z,1.37
2022-12-18T14:33:31.625Z,1.34
2022-12-18T14:36:05.643Z,1.31
2022-12-18T14:38:40.320Z,1.33
2022-12-18T14:41:16.472Z,1.27
2022-12-18T14:43:56.282Z,1.18
2022-12-18T14:46:36.822Z,1.06
2022-12-18T14:49:23.702Z,1.00
2022-12-18T14:52:02.077Z,0.95
2022-12-18T14:54:36.154Z,0.86
2022-12-18T14:57:27.674Z,0.76
2022-12-18T15:00:09.684Z,0.62
2022-12-18T15:02:44.282Z,0.52
2022-12-18T15:05:23.074Z,0.42
2022-12-18T15:07:58.469Z,0.35
2022-12-18T15:10:34.472Z,0.26
2022-12-18T15:13:25.539Z,0.20
2022-12-18T15:15:59.387Z,0.16
2022-12-18T15:18:37.683Z,0.13
2022-12-18T15:21:22.343Z,0.11
2022-12-18T15:23:57.865Z,0.06
2022-12-18T15:26:40.792Z,-0.06
2022-12-18T15:29:27.042Z,-0.17
2022-12-18T15:32:07.986Z,-0.23
2022-12-18T15:34:39.858Z,-0.33
2022-12-18T15:37:14.515Z,-0.37
2022-12-18T15:39:47.369Z,-0.38
2022-12-18T15:42:40.383Z,-0.43
2022-12-18T15:45:15.673Z,-0.45
2022-12-18T15:47:48.542Z,-0.49
2022-12-18T15:50:23.032Z,-0.52
2022-12-18T15:52:59.233Z,-0.56
2022-12-18T15:55:54.237Z,-0.63
2022-12-18T15:58:31.173Z,-0.74
2022-12-18T16:01:05.248Z,-0.81
2022-12-18T16:03:40.301Z,-0.85
2022-12-18T16:06:15.303Z,-0.90
2022-12-18T16:08:49.893Z,-0.98
2022-12-18T16:11:40.805Z,-1.06
2022-12-18T16:14:21.570Z,-1.06
2022-12-18T16:16:55.580Z,-1.04
2022-12-18T16:19:28.076Z,-1.05
2022-12-18T16:22:03.896Z,-1.05
2022-12-18T16:24:38.453Z,-1.06
2022-12-18T16:27:11.400Z,-1.10
2022-12-18T16:29:47.606Z,-1.14
2022-12-18T16:32:22.023Z,-1.17
2022-12-18T16:34:58.709Z,-1.23
2022-12-18T16:37:33.013Z,-1.26
2022-12-18T16:40:09.962Z,-1.26
2022-12-18T16:42:45.522Z,-1.26
2022-12-18T16:45:20.586Z,-1.28
2022-12-18T16:47:53.908Z,-1.30
2022-12-18T16:50:29.111Z,-1.33
2022-12-18T16:53:01.017Z,-1.39
2022-12-18T16:55:35.802Z,-1.44
2022-12-18T16:58:08.250Z,-1.47
2022-12-18T17:00:43.141Z,-1.51
2022-12-18T17:03:15.925Z,-1.53
2022-12-18T17:05:53.297Z,-1.57
2022-12-18T17:08:25.577Z,-1.65
2022-12-18T17:10:58.124Z,-1.76
2022-12-18T17:13:33.467Z,-1.82
2022-12-18T17:16:10.308Z,-1.99
2022-12-18T17:18:43.515Z,-2.17
2022-12-18T17:21:16.912Z,-2.27
2022-12-18T17:23:50.888Z,-2.29
2022-12-18T17:26:23.280Z,-2.35
2022-12-18T17:28:57.613Z,-2.42
2022-12-18T17:31:31.724Z,-2.52
2022-12-18T17:34:08.002Z,-2.54
2022-12-18T17:36:41.467Z,-2.55
2022-12-18T17:39:20.505Z,-2.54
2022-12-18T17:41:54.414Z,-2.50
2022-12-18T17:44:28.423Z,-2.49
2022-12-18T17:47:04.528Z,-2.52
2022-12-18T17:49:39.226Z,-2.55
2022-12-18T17:52:12.951Z,-2.59
2022-12-18T17:54:46.956Z,-2.62
2022-12-18T17:57:20.314Z,-2.64
2022-12-18T17:59:53.775Z,-2.61
2022-12-18T18:02:28.084Z,-2.63
2022-12-18T18:05:03.947Z,-2.66
2022-12-18T18:07:39.558Z,-2.75
2022-12-18T18:10:12.583Z,-2.85
2022-12-18T18:13:01.915Z,-2.92
2022-12-18T18:15:39.999Z,-2.96
2022-12-18T18:18:13.135Z,-2.96
2022-12-18T18:20:47.348Z,-2.96
2022-12-18T18:23:20.139Z,-2.99
2022-12-18T18:25:56.721Z,-3.03
2022-12-18T18:28:30.317Z,-3.10
2022-12-18T18:31:09.213Z,-3.16
2022-12-18T18:33:43.313Z,-3.20
2022-12-18T18:36:17.124Z,-3.23
2022-12-18T18:38:50.775Z,-3.23
2022-12-18T18:41:24.696Z,-3.29
2022-12-18T18:43:59.393Z,-3.30
2022-12-18T18:46:31.756Z,-3.27
2022-12-18T18:49:07.012Z,-3.28
2022-12-18T18:51:41.812Z,-3.27
2022-12-18T18:54:16.159Z,-3.29
2022-12-18T18:59:44.838Z,-3.37
2022-12-18T19:02:20.660Z,-3.41
2022-12-18T19:04:55.758Z,-3.50
2022-12-18T19:07:32.082Z,-3.52
2022-12-18T19:10:09.720Z,-3.54
2022-12-18T19:13:01.148Z,-3.60
2022-12-18T19:15:34.287Z,-3.62
2022-12-18T19:18:06.453Z,-3.63
2022-12-18T19:20:39.499Z,-3.61
2022-12-18T19:23:13.605Z,-3.62
2022-12-18T19:25:47.328Z,-3.64
2022-12-18T19:28:29.336Z,-3.71
2022-12-18T19:31:06.433Z,-3.79
2022-12-18T19:33:43.520Z,-3.82
2022-12-18T19:36:21.923Z,-3.86
2022-12-18T19:38:56.788Z,-3.87
2022-12-18T19:41:31.303Z,-3.89
2022-12-18T19:44:07.957Z,-3.95
2022-12-18T19:46:43.908Z,-3.95
2022-12-18T19:49:18.138Z,-3.89
2022-12-18T19:51:53.833Z,-3.89
2022-12-18T19:54:25.924Z,-3.90
2022-12-18T19:57:02.636Z,-3.94
2022-12-18T19:59:35.989Z,-3.96
2022-12-18T20:02:14.835Z,-3.98
2022-12-18T20:04:47.344Z,-4.03
2022-12-18T20:07:23.568Z,-4.06
2022-12-18T20:10:02.753Z,-4.08
2022-12-18T20:12:43.432Z,-4.13
2022-12-18T20:15:17.726Z,-4.17
2022-12-18T20:17:53.543Z,-4.24
2022-12-18T20:20:27.421Z,-4.28
2022-12-18T20:23:00.889Z,-4.27
2022-12-18T20:25:35.591Z,-4.29
2022-12-18T20:28:12.129Z,-4.34
2022-12-18T20:30:46.729Z,-4.31
2022-12-18T20:33:20.375Z,-4.29
2022-12-18T20:35:53.568Z,-4.32
2022-12-18T20:38:26.948Z,-4.28
2022-12-18T20:41:03.616Z,-4.28
2022-12-18T20:43:38.268Z,-4.30
2022-12-18T20:46:19.126Z,-4.31
2022-12-18T20:48:57.516Z,-4.31
2022-12-18T20:51:32.704Z,-4.32
2022-12-18T20:54:08.000Z,-4.30
2022-12-18T20:56:45.222Z,-4.32
2022-12-18T20:59:20.973Z,-4.34
2022-12-18T21:01:56.042Z,-4.36
2022-12-18T21:04:30.219Z,-4.37
2022-12-18T21:07:09.183Z,-4.38
2022-12-18T21:09:42.961Z,-4.39
2022-12-18T21:12:44.004Z,-4.40
2022-12-18T21:15:28.701Z,-4.41
2022-12-18T21:18:03.329Z,-4.44
2022-12-18T21:20:41.228Z,-4.48
2022-12-18T21:23:17.105Z,-4.47
2022-12-18T21:25:55.512Z,-4.42
2022-12-18T21:28:29.338Z,-4.36
2022-12-18T21:31:02.158Z,-4.31
2022-12-18T21:33:35.930Z,-4.32
2022-12-18T21:36:13.639Z,-4.35
2022-12-18T21:38:47.681Z,-4.35
2022-12-18T21:41:43.625Z,-4.38
2022-12-18T21:44:19.455Z,-4.49
2022-12-18T21:46:58.965Z,-4.51
2022-12-18T21:49:42.011Z,-4.54
2022-12-18T21:52:16.803Z,-4.56
2022-12-18T21:54:50.589Z,-4.61
2022-12-18T21:57:23.819Z,-4.66
2022-12-18T21:59:59.787Z,-4.64
2022-12-18T22:02:33.746Z,-4.65
2022-12-18T22:05:10.468Z,-4.66
2022-12-18T22:07:46.774Z,-4.67
2022-12-18T22:10:21.871Z,-4.70
2022-12-18T22:12:59.422Z,-4.73
2022-12-18T22:15:32.489Z,-4.79
2022-12-18T22:18:08.581Z,-4.84
2022-12-18T22:20:43.312Z,-4.81
2022-12-18T22:23:16.492Z,-4.76
2022-12-18T22:25:49.906Z,-4.74
2022-12-18T22:28:42.854Z,-4.73
2022-12-18T22:31:16.173Z,-4.79
2022-12-18T22:33:48.522Z,-4.82
2022-12-18T22:36:23.178Z,-4.84
2022-12-18T22:38:55.832Z,-4.86
2022-12-18T22:41:32.356Z,-4.91
2022-12-18T22:44:07.010Z,-4.95
2022-12-18T22:46:46.342Z,-5.06
2022-12-18T22:49:24.204Z,-5.10
2022-12-18T22:51:58.135Z,-5.10
2022-12-18T22:54:30.823Z,-5.07
2022-12-18T22:57:03.673Z,-5.04
2022-12-18T22:59:36.514Z,-5.06
2022-12-18T23:02:10.198Z,-5.06
2022-12-18T23:04:44.414Z,-5.03
2022-12-18T23:07:20.501Z,-5.00
2022-12-18T23:09:58.412Z,-4.96
2022-12-18T23:12:35.828Z,-4.92
2022-12-18T23:15:12.122Z,-4.91
2022-12-18T23:17:45.543Z,-4.90
2022-12-18T23:20:19.577Z,-4.89
2022-12-18T23:22:55.067Z,-4.93
2022-12-18T23:25:27.462Z,-5.01
2022-12-18T23:28:03.369Z,-5.09
2022-12-18T23:30:36.940Z,-5.14
2022-12-18T23:33:10.524Z,-5.21
2022-12-18T23:35:44.497Z,-5.23
2022-12-18T23:38:19.870Z,-5.21
2022-12-18T23:40:53.048Z,-5.16
2022-12-18T23:43:31.937Z,-5.09
2022-12-18T23:46:14.056Z,-5.06
2022-12-18T23:48:49.945Z,-5.01
2022-12-18T23:51:26.950Z,-5.00
2022-12-18T23:54:01.064Z,-5.05
2022-12-18T23:56:35.730Z,-5.03
2022-12-18T23:59:09.503Z,-4.97
